sensor_id;sensor_type;location;lat;lon;timestamp;P1;durP1;ratioP1;P2;durP2;ratioP2
56267;SDS011;42175;46.930;9.532;2023-02-28T00:00:33;6.97;;;3.40;;
56267;SDS011;42175;46.930;9.532;2023-02-28T00:02:59;6.25;;;2.80;;
56267;SDS011;42175;46.930;9.532;2023-02-28T00:05:25;7.50;;;2.72;;
56267;SDS011;42175;46.930;9.532;2023-02-28T00:07:52;7.60;;;3.58;;
56267;SDS011;42175;46.930;9.532;2023-02-28T00:10:22;5.68;;;3.20;;
56267;SDS011;42175;46.930;9.532;2023-02-28T00:12:50;7.95;;;2.85;;
56267;SDS011;42175;46.930;9.532;2023-02-28T00:15:16;6.80;;;3.15;;
56267;SDS011;42175;46.930;9.532;2023-02-28T00:17:43;5.00;;;2.88;;
56267;SDS011;42175;46.930;9.532;2023-02-28T00:20:10;5.50;;;2.72;;
56267;SDS011;42175;46.930;9.532;2023-02-28T00:22:44;5.97;;;2.88;;
56267;SDS011;42175;46.930;9.532;2023-02-28T00:25:12;5.53;;;3.83;;
56267;SDS011;42175;46.930;9.532;2023-02-28T00:27:39;4.38;;;2.33;;
56267;SDS011;42175;46.930;9.532;2023-02-28T00:30:06;4.28;;;3.20;;
56267;SDS011;42175;46.930;9.532;2023-02-28T00:32:35;6.22;;;3.13;;
56267;SDS011;42175;46.930;9.532;2023-02-28T00:35:01;4.30;;;2.85;;
56267;SDS011;42175;46.930;9.532;2023-02-28T00:37:27;5.78;;;3.53;;
56267;SDS011;42175;46.930;9.532;2023-02-28T00:39:52;5.90;;;2.53;;
56267;SDS011;42175;46.930;9.532;2023-02-28T00:42:18;5.15;;;2.85;;
56267;SDS011;42175;46.930;9.532;2023-02-28T00:44:44;6.47;;;3.17;;
56267;SDS011;42175;46.930;9.532;2023-02-28T00:47:10;5.00;;;3.03;;
56267;SDS011;42175;46.930;9.532;2023-02-28T00:49:35;6.25;;;2.88;;
56267;SDS011;42175;46.930;9.532;2023-02-28T00:52:01;5.10;;;2.80;;
56267;SDS011;42175;46.930;9.532;2023-02-28T00:54:27;4.68;;;2.35;;
56267;SDS011;42175;46.930;9.532;2023-02-28T00:56:52;4.25;;;2.70;;
56267;SDS011;42175;46.930;9.532;2023-02-28T00:59:18;5.40;;;2.92;;
56267;SDS011;42175;46.930;9.532;2023-02-28T01:01:45;4.50;;;2.65;;
56267;SDS011;42175;46.930;9.532;2023-02-28T01:04:11;4.80;;;2.97;;
56267;SDS011;42175;46.930;9.532;2023-02-28T01:06:38;6.13;;;2.95;;
56267;SDS011;42175;46.930;9.532;2023-02-28T01:09:04;5.18;;;2.67;;
56267;SDS011;42175;46.930;9.532;2023-02-28T01:11:31;3.58;;;2.45;;
56267;SDS011;42175;46.930;9.532;2023-02-28T01:13:57;4.28;;;2.42;;
56267;SDS011;42175;46.930;9.532;2023-02-28T01:16:24;5.57;;;3.58;;
56267;SDS011;42175;46.930;9.532;2023-02-28T01:18:50;4.40;;;3.15;;
56267;SDS011;42175;46.930;9.532;2023-02-28T01:21:16;4.47;;;2.72;;
56267;SDS011;42175;46.930;9.532;2023-02-28T01:23:43;5.10;;;2.42;;
56267;SDS011;42175;46.930;9.532;2023-02-28T01:26:17;5.38;;;3.00;;
56267;SDS011;42175;46.930;9.532;2023-02-28T01:28:44;8.40;;;3.08;;
56267;SDS011;42175;46.930;9.532;2023-02-28T01:31:11;4.97;;;2.63;;
56267;SDS011;42175;46.930;9.532;2023-02-28T01:33:37;3.72;;;2.45;;
56267;SDS011;42175;46.930;9.532;2023-02-28T01:36:08;3.40;;;2.35;;
56267;SDS011;42175;46.930;9.532;2023-02-28T01:38:36;5.35;;;2.78;;
56267;SDS011;42175;46.930;9.532;2023-02-28T01:41:02;4.60;;;2.78;;
56267;SDS011;42175;46.930;9.532;2023-02-28T01:43:30;3.63;;;2.22;;
56267;SDS011;42175;46.930;9.532;2023-02-28T01:46:16;5.10;;;3.20;;
56267;SDS011;42175;46.930;9.532;2023-02-28T01:51:13;4.35;;;2.50;;
56267;SDS011;42175;46.930;9.532;2023-02-28T01:53:52;5.55;;;2.60;;
56267;SDS011;42175;46.930;9.532;2023-02-28T01:56:24;3.22;;;2.33;;
56267;SDS011;42175;46.930;9.532;2023-02-28T01:58:54;4.40;;;2.22;;
56267;SDS011;42175;46.930;9.532;2023-02-28T02:01:21;5.05;;;2.60;;
56267;SDS011;42175;46.930;9.532;2023-02-28T02:03:51;4.93;;;2.90;;
56267;SDS011;42175;46.930;9.532;2023-02-28T02:06:24;3.83;;;2.50;;
56267;SDS011;42175;46.930;9.532;2023-02-28T02:11:21;4.20;;;2.67;;
56267;SDS011;42175;46.930;9.532;2023-02-28T02:13:57;5.80;;;2.65;;
56267;SDS011;42175;46.930;9.532;2023-02-28T02:22:07;3.35;;;2.45;;
56267;SDS011;42175;46.930;9.532;2023-02-28T02:37:57;4.30;;;2.83;;
56267;SDS011;42175;46.930;9.532;2023-02-28T02:40:43;4.53;;;2.67;;
56267;SDS011;42175;46.930;9.532;2023-02-28T02:48:41;4.90;;;2.83;;
56267;SDS011;42175;46.930;9.532;2023-02-28T02:51:11;6.85;;;3.08;;
56267;SDS011;42175;46.930;9.532;2023-02-28T02:53:49;4.23;;;2.37;;
56267;SDS011;42175;46.930;9.532;2023-02-28T02:56:28;4.75;;;2.90;;
56267;SDS011;42175;46.930;9.532;2023-02-28T02:58:58;3.75;;;2.30;;
56267;SDS011;42175;46.930;9.532;2023-02-28T03:01:29;3.75;;;2.20;;
56267;SDS011;42175;46.930;9.532;2023-02-28T03:03:57;4.15;;;2.50;;
56267;SDS011;42175;46.930;9.532;2023-02-28T03:06:27;3.67;;;2.70;;
56267;SDS011;42175;46.930;9.532;2023-02-28T03:08:53;3.92;;;2.53;;
56267;SDS011;42175;46.930;9.532;2023-02-28T03:11:19;4.03;;;2.67;;
56267;SDS011;42175;46.930;9.532;2023-02-28T03:28:03;4.57;;;2.70;;
56267;SDS011;42175;46.930;9.532;2023-02-28T03:36:11;5.95;;;3.22;;
56267;SDS011;42175;46.930;9.532;2023-02-28T03:38:49;4.32;;;2.85;;
56267;SDS011;42175;46.930;9.532;2023-02-28T03:43:57;4.53;;;2.78;;
56267;SDS011;42175;46.930;9.532;2023-02-28T03:46:54;3.95;;;2.53;;
56267;SDS011;42175;46.930;9.532;2023-02-28T03:49:27;4.22;;;2.70;;
56267;SDS011;42175;46.930;9.532;2023-02-28T03:51:58;4.55;;;2.88;;
56267;SDS011;42175;46.930;9.532;2023-02-28T03:54:30;3.88;;;2.67;;
56267;SDS011;42175;46.930;9.532;2023-02-28T03:59:37;4.53;;;2.72;;
56267;SDS011;42175;46.930;9.532;2023-02-28T04:02:12;4.75;;;3.28;;
56267;SDS011;42175;46.930;9.532;2023-02-28T04:04:38;4.20;;;2.80;;
56267;SDS011;42175;46.930;9.532;2023-02-28T04:07:09;4.82;;;2.92;;
56267;SDS011;42175;46.930;9.532;2023-02-28T04:09:36;3.95;;;2.72;;
56267;SDS011;42175;46.930;9.532;2023-02-28T04:12:03;5.75;;;3.35;;
56267;SDS011;42175;46.930;9.532;2023-02-28T04:14:29;4.35;;;2.95;;
56267;SDS011;42175;46.930;9.532;2023-02-28T04:16:55;5.00;;;2.95;;
56267;SDS011;42175;46.930;9.532;2023-02-28T04:19:20;3.72;;;2.55;;
56267;SDS011;42175;46.930;9.532;2023-02-28T04:21:47;6.68;;;3.13;;
56267;SDS011;42175;46.930;9.532;2023-02-28T04:24:20;4.82;;;2.75;;
56267;SDS011;42175;46.930;9.532;2023-02-28T04:26:49;3.55;;;2.75;;
56267;SDS011;42175;46.930;9.532;2023-02-28T04:29:29;5.00;;;3.10;;
56267;SDS011;42175;46.930;9.532;2023-02-28T04:31:57;7.38;;;3.00;;
56267;SDS011;42175;46.930;9.532;2023-02-28T04:34:25;6.25;;;3.17;;
56267;SDS011;42175;46.930;9.532;2023-02-28T04:36:56;4.05;;;2.80;;
56267;SDS011;42175;46.930;9.532;2023-02-28T04:39:23;3.33;;;2.72;;
56267;SDS011;42175;46.930;9.532;2023-02-28T04:41:49;6.30;;;3.13;;
56267;SDS011;42175;46.930;9.532;2023-02-28T04:44:15;6.13;;;2.65;;
56267;SDS011;42175;46.930;9.532;2023-02-28T04:46:41;3.72;;;2.67;;
56267;SDS011;42175;46.930;9.532;2023-02-28T04:49:09;3.72;;;2.40;;
56267;SDS011;42175;46.930;9.532;2023-02-28T04:51:36;4.97;;;2.80;;
56267;SDS011;42175;46.930;9.532;2023-02-28T04:54:02;5.25;;;2.50;;
56267;SDS011;42175;46.930;9.532;2023-02-28T04:56:27;3.83;;;2.72;;
56267;SDS011;42175;46.930;9.532;2023-02-28T04:58:53;3.38;;;2.40;;
56267;SDS011;42175;46.930;9.532;2023-02-28T05:03:56;5.78;;;2.92;;
56267;SDS011;42175;46.930;9.532;2023-02-28T05:06:24;3.63;;;2.50;;
56267;SDS011;42175;46.930;9.532;2023-02-28T05:08:51;3.60;;;2.70;;
56267;SDS011;42175;46.930;9.532;2023-02-28T05:13:48;3.83;;;2.47;;
56267;SDS011;42175;46.930;9.532;2023-02-28T05:16:15;5.28;;;3.22;;
56267;SDS011;42175;46.930;9.532;2023-02-28T05:18:42;3.67;;;2.65;;
56267;SDS011;42175;46.930;9.532;2023-02-28T05:23:54;4.35;;;3.05;;
56267;SDS011;42175;46.930;9.532;2023-02-28T05:26:21;3.92;;;2.90;;
56267;SDS011;42175;46.930;9.532;2023-02-28T05:28:47;5.00;;;2.72;;
56267;SDS011;42175;46.930;9.532;2023-02-28T05:31:13;5.43;;;2.90;;
56267;SDS011;42175;46.930;9.532;2023-02-28T05:33:38;4.43;;;2.75;;
56267;SDS011;42175;46.930;9.532;2023-02-28T05:36:04;4.93;;;2.95;;
56267;SDS011;42175;46.930;9.532;2023-02-28T05:38:31;4.00;;;2.78;;
56267;SDS011;42175;46.930;9.532;2023-02-28T05:40:56;4.05;;;2.42;;
56267;SDS011;42175;46.930;9.532;2023-02-28T05:43:22;7.57;;;2.53;;
56267;SDS011;42175;46.930;9.532;2023-02-28T05:45:48;3.67;;;2.90;;
56267;SDS011;42175;46.930;9.532;2023-02-28T05:48:14;5.85;;;2.88;;
56267;SDS011;42175;46.930;9.532;2023-02-28T05:50:40;11.80;;;3.53;;
56267;SDS011;42175;46.930;9.532;2023-02-28T05:53:07;12.18;;;4.40;;
56267;SDS011;42175;46.930;9.532;2023-02-28T05:55:33;5.03;;;3.10;;
56267;SDS011;42175;46.930;9.532;2023-02-28T05:58:01;6.82;;;2.80;;
56267;SDS011;42175;46.930;9.532;2023-02-28T06:00:26;7.80;;;3.60;;
56267;SDS011;42175;46.930;9.532;2023-02-28T06:02:52;7.97;;;3.50;;
56267;SDS011;42175;46.930;9.532;2023-02-28T06:05:21;5.65;;;3.50;;
56267;SDS011;42175;46.930;9.532;2023-02-28T06:07:47;5.68;;;3.08;;
56267;SDS011;42175;46.930;9.532;2023-02-28T06:10:13;6.25;;;3.30;;
56267;SDS011;42175;46.930;9.532;2023-02-28T06:12:39;4.85;;;3.13;;
56267;SDS011;42175;46.930;9.532;2023-02-28T06:15:12;5.20;;;3.35;;
56267;SDS011;42175;46.930;9.532;2023-02-28T06:17:39;6.07;;;3.08;;
56267;SDS011;42175;46.930;9.532;2023-02-28T06:20:05;7.55;;;3.75;;
56267;SDS011;42175;46.930;9.532;2023-02-28T06:22:33;4.15;;;3.15;;
56267;SDS011;42175;46.930;9.532;2023-02-28T06:25:00;6.68;;;3.50;;
56267;SDS011;42175;46.930;9.532;2023-02-28T06:27:26;6.60;;;3.30;;
56267;SDS011;42175;46.930;9.532;2023-02-28T06:29:55;5.78;;;3.53;;
56267;SDS011;42175;46.930;9.532;2023-02-28T06:32:21;6.47;;;3.58;;
56267;SDS011;42175;46.930;9.532;2023-02-28T06:34:47;4.32;;;3.28;;
56267;SDS011;42175;46.930;9.532;2023-02-28T06:37:13;7.47;;;3.20;;
56267;SDS011;42175;46.930;9.532;2023-02-28T06:39:38;6.18;;;3.30;;
56267;SDS011;42175;46.930;9.532;2023-02-28T06:42:04;14.45;;;3.13;;
56267;SDS011;42175;46.930;9.532;2023-02-28T06:44:30;15.50;;;3.58;;
56267;SDS011;42175;46.930;9.532;2023-02-28T06:47:03;9.68;;;3.90;;
56267;SDS011;42175;46.930;9.532;2023-02-28T06:49:31;7.93;;;4.10;;
56267;SDS011;42175;46.930;9.532;2023-02-28T06:51:57;9.30;;;3.40;;
56267;SDS011;42175;46.930;9.532;2023-02-28T06:54:23;7.22;;;3.15;;
56267;SDS011;42175;46.930;9.532;2023-02-28T06:56:49;5.47;;;2.85;;
56267;SDS011;42175;46.930;9.532;2023-02-28T06:59:16;6.32;;;2.72;;
56267;SDS011;42175;46.930;9.532;2023-02-28T07:01:42;6.80;;;3.83;;
56267;SDS011;42175;46.930;9.532;2023-02-28T07:04:08;5.57;;;3.00;;
56267;SDS011;42175;46.930;9.532;2023-02-28T07:06:33;9.02;;;3.22;;
56267;SDS011;42175;46.930;9.532;2023-02-28T07:08:59;6.13;;;3.42;;
56267;SDS011;42175;46.930;9.532;2023-02-28T07:11:25;5.15;;;3.00;;
56267;SDS011;42175;46.930;9.532;2023-02-28T07:13:55;7.70;;;3.90;;
56267;SDS011;42175;46.930;9.532;2023-02-28T07:16:22;5.75;;;3.15;;
56267;SDS011;42175;46.930;9.532;2023-02-28T07:18:48;6.00;;;2.85;;
56267;SDS011;42175;46.930;9.532;2023-02-28T07:21:15;5.53;;;3.15;;
56267;SDS011;42175;46.930;9.532;2023-02-28T07:23:41;5.03;;;2.90;;
56267;SDS011;42175;46.930;9.532;2023-02-28T07:26:07;5.68;;;2.90;;
56267;SDS011;42175;46.930;9.532;2023-02-28T07:28:40;7.07;;;3.28;;
56267;SDS011;42175;46.930;9.532;2023-02-28T07:31:08;5.82;;;3.40;;
56267;SDS011;42175;46.930;9.532;2023-02-28T07:33:35;6.00;;;3.38;;
56267;SDS011;42175;46.930;9.532;2023-02-28T07:36:02;4.40;;;3.25;;
56267;SDS011;42175;46.930;9.532;2023-02-28T07:38:29;6.03;;;3.28;;
56267;SDS011;42175;46.930;9.532;2023-02-28T07:40:55;4.57;;;2.95;;
56267;SDS011;42175;46.930;9.532;2023-02-28T07:43:21;8.38;;;3.03;;
56267;SDS011;42175;46.930;9.532;2023-02-28T07:45:46;5.05;;;2.83;;
56267;SDS011;42175;46.930;9.532;2023-02-28T07:48:12;5.82;;;3.20;;
56267;SDS011;42175;46.930;9.532;2023-02-28T07:50:38;4.13;;;2.78;;
56267;SDS011;42175;46.930;9.532;2023-02-28T07:53:03;4.35;;;2.95;;
56267;SDS011;42175;46.930;9.532;2023-02-28T07:55:29;5.78;;;2.95;;
56267;SDS011;42175;46.930;9.532;2023-02-28T07:57:56;5.78;;;3.45;;
56267;SDS011;42175;46.930;9.532;2023-02-28T08:00:23;4.75;;;2.70;;
56267;SDS011;42175;46.930;9.532;2023-02-28T08:02:49;5.97;;;2.55;;
56267;SDS011;42175;46.930;9.532;2023-02-28T08:05:14;5.15;;;3.30;;
56267;SDS011;42175;46.930;9.532;2023-02-28T08:07:40;3.97;;;2.70;;
56267;SDS011;42175;46.930;9.532;2023-02-28T08:10:06;9.25;;;3.97;;
56267;SDS011;42175;46.930;9.532;2023-02-28T08:12:33;4.57;;;3.03;;
56267;SDS011;42175;46.930;9.532;2023-02-28T08:14:59;7.47;;;3.00;;
56267;SDS011;42175;46.930;9.532;2023-02-28T08:17:25;13.75;;;4.93;;
56267;SDS011;42175;46.930;9.532;2023-02-28T08:19:50;9.73;;;2.80;;
56267;SDS011;42175;46.930;9.532;2023-02-28T08:22:16;6.35;;;3.00;;
56267;SDS011;42175;46.930;9.532;2023-02-28T08:24:41;7.53;;;2.85;;
56267;SDS011;42175;46.930;9.532;2023-02-28T08:27:08;12.32;;;2.90;;
56267;SDS011;42175;46.930;9.532;2023-02-28T08:29:36;5.75;;;3.25;;
56267;SDS011;42175;46.930;9.532;2023-02-28T08:32:02;8.70;;;3.15;;
56267;SDS011;42175;46.930;9.532;2023-02-28T08:34:29;15.05;;;9.18;;
56267;SDS011;42175;46.930;9.532;2023-02-28T08:36:54;13.75;;;9.45;;
56267;SDS011;42175;46.930;9.532;2023-02-28T08:39:20;18.10;;;9.80;;
56267;SDS011;42175;46.930;9.532;2023-02-28T08:41:46;14.45;;;6.35;;
56267;SDS011;42175;46.930;9.532;2023-02-28T08:44:11;10.90;;;5.45;;
56267;SDS011;42175;46.930;9.532;2023-02-28T08:46:37;13.15;;;5.13;;
56267;SDS011;42175;46.930;9.532;2023-02-28T08:49:03;13.05;;;5.00;;
56267;SDS011;42175;46.930;9.532;2023-02-28T08:51:29;10.95;;;5.15;;
56267;SDS011;42175;46.930;9.532;2023-02-28T08:53:58;7.90;;;4.18;;
56267;SDS011;42175;46.930;9.532;2023-02-28T08:56:25;9.55;;;4.90;;
56267;SDS011;42175;46.930;9.532;2023-02-28T08:58:53;9.82;;;4.00;;
56267;SDS011;42175;46.930;9.532;2023-02-28T09:01:27;12.65;;;3.65;;
56267;SDS011;42175;46.930;9.532;2023-02-28T09:03:54;10.30;;;3.65;;
56267;SDS011;42175;46.930;9.532;2023-02-28T09:06:22;7.13;;;3.75;;
56267;SDS011;42175;46.930;9.532;2023-02-28T09:08:50;6.18;;;3.40;;
56267;SDS011;42175;46.930;9.532;2023-02-28T09:11:16;9.55;;;3.78;;
56267;SDS011;42175;46.930;9.532;2023-02-28T09:13:43;5.28;;;3.13;;
56267;SDS011;42175;46.930;9.532;2023-02-28T09:16:10;7.18;;;3.40;;
56267;SDS011;42175;46.930;9.532;2023-02-28T09:18:38;8.45;;;3.58;;
56267;SDS011;42175;46.930;9.532;2023-02-28T09:21:05;9.27;;;3.25;;
56267;SDS011;42175;46.930;9.532;2023-02-28T09:23:32;8.40;;;3.50;;
56267;SDS011;42175;46.930;9.532;2023-02-28T09:25:59;6.40;;;3.65;;
56267;SDS011;42175;46.930;9.532;2023-02-28T09:28:24;5.68;;;3.42;;
56267;SDS011;42175;46.930;9.532;2023-02-28T09:30:52;5.10;;;3.15;;
56267;SDS011;42175;46.930;9.532;2023-02-28T09:33:19;6.10;;;3.50;;
56267;SDS011;42175;46.930;9.532;2023-02-28T09:35:46;4.68;;;3.15;;
56267;SDS011;42175;46.930;9.532;2023-02-28T09:38:13;7.65;;;3.47;;
56267;SDS011;42175;46.930;9.532;2023-02-28T09:40:58;11.65;;;3.30;;
56267;SDS011;42175;46.930;9.532;2023-02-28T09:43:28;12.07;;;3.55;;
56267;SDS011;42175;46.930;9.532;2023-02-28T09:46:05;10.18;;;3.90;;
56267;SDS011;42175;46.930;9.532;2023-02-28T09:48:37;11.50;;;3.35;;
56267;SDS011;42175;46.930;9.532;2023-02-28T09:54:00;9.68;;;4.13;;
56267;SDS011;42175;46.930;9.532;2023-02-28T09:56:31;9.52;;;3.42;;
56267;SDS011;42175;46.930;9.532;2023-02-28T10:05:07;15.77;;;4.30;;
56267;SDS011;42175;46.930;9.532;2023-02-28T10:10:18;14.10;;;4.50;;
56267;SDS011;42175;46.930;9.532;2023-02-28T10:12:46;17.60;;;5.07;;
56267;SDS011;42175;46.930;9.532;2023-02-28T10:15:13;15.57;;;5.28;;
56267;SDS011;42175;46.930;9.532;2023-02-28T10:17:42;14.27;;;4.93;;
56267;SDS011;42175;46.930;9.532;2023-02-28T10:20:12;15.10;;;10.18;;
56267;SDS011;42175;46.930;9.532;2023-02-28T10:25:27;14.65;;;12.23;;
56267;SDS011;42175;46.930;9.532;2023-02-28T10:28:13;16.33;;;12.00;;
56267;SDS011;42175;46.930;9.532;2023-02-28T10:30:48;16.05;;;12.55;;
56267;SDS011;42175;46.930;9.532;2023-02-28T10:35:53;21.55;;;7.90;;
56267;SDS011;42175;46.930;9.532;2023-02-28T10:38:38;17.15;;;6.70;;
56267;SDS011;42175;46.930;9.532;2023-02-28T10:41:06;20.27;;;6.93;;
56267;SDS011;42175;46.930;9.532;2023-02-28T10:43:51;14.35;;;6.25;;
56267;SDS011;42175;46.930;9.532;2023-02-28T10:46:18;17.65;;;7.13;;
56267;SDS011;42175;46.930;9.532;2023-02-28T10:49:05;14.07;;;5.93;;
56267;SDS011;42175;46.930;9.532;2023-02-28T10:51:39;11.88;;;5.43;;
56267;SDS011;42175;46.930;9.532;2023-02-28T10:54:13;15.05;;;5.13;;
56267;SDS011;42175;46.930;9.532;2023-02-28T10:57:15;13.23;;;6.03;;
56267;SDS011;42175;46.930;9.532;2023-02-28T10:59:53;18.38;;;5.82;;
56267;SDS011;42175;46.930;9.532;2023-02-28T11:02:38;13.77;;;5.53;;
56267;SDS011;42175;46.930;9.532;2023-02-28T11:05:22;16.30;;;6.53;;
56267;SDS011;42175;46.930;9.532;2023-02-28T11:07:58;13.13;;;6.13;;
56267;SDS011;42175;46.930;9.532;2023-02-28T11:10:25;15.63;;;6.40;;
56267;SDS011;42175;46.930;9.532;2023-02-28T11:12:55;19.17;;;5.80;;
56267;SDS011;42175;46.930;9.532;2023-02-28T11:15:23;17.42;;;5.80;;
56267;SDS011;42175;46.930;9.532;2023-02-28T11:17:55;15.52;;;5.85;;
56267;SDS011;42175;46.930;9.532;2023-02-28T11:20:24;12.02;;;5.60;;
56267;SDS011;42175;46.930;9.532;2023-02-28T11:22:53;17.00;;;6.07;;
56267;SDS011;42175;46.930;9.532;2023-02-28T11:25:24;14.45;;;5.88;;
56267;SDS011;42175;46.930;9.532;2023-02-28T11:27:54;12.27;;;5.20;;
56267;SDS011;42175;46.930;9.532;2023-02-28T11:30:36;12.63;;;4.82;;
56267;SDS011;42175;46.930;9.532;2023-02-28T11:36:00;15.88;;;5.63;;
56267;SDS011;42175;46.930;9.532;2023-02-28T11:38:29;10.48;;;5.85;;
56267;SDS011;42175;46.930;9.532;2023-02-28T11:41:04;11.07;;;5.00;;
56267;SDS011;42175;46.930;9.532;2023-02-28T11:43:53;13.40;;;5.78;;
56267;SDS011;42175;46.930;9.532;2023-02-28T11:46:30;13.15;;;5.30;;
56267;SDS011;42175;46.930;9.532;2023-02-28T11:49:15;13.88;;;5.53;;
56267;SDS011;42175;46.930;9.532;2023-02-28T12:05:46;12.73;;;4.47;;
56267;SDS011;42175;46.930;9.532;2023-02-28T12:11:29;10.33;;;4.60;;
56267;SDS011;42175;46.930;9.532;2023-02-28T12:27:36;14.55;;;6.63;;
56267;SDS011;42175;46.930;9.532;2023-02-28T12:30:13;17.63;;;7.97;;
56267;SDS011;42175;46.930;9.532;2023-02-28T12:33:02;23.50;;;8.95;;
56267;SDS011;42175;46.930;9.532;2023-02-28T12:35:32;17.05;;;8.90;;
56267;SDS011;42175;46.930;9.532;2023-02-28T12:38:04;16.30;;;8.88;;
56267;SDS011;42175;46.930;9.532;2023-02-28T12:40:41;27.30;;;9.70;;
56267;SDS011;42175;46.930;9.532;2023-02-28T12:43:16;17.48;;;8.20;;
56267;SDS011;42175;46.930;9.532;2023-02-28T12:48:40;20.10;;;9.68;;
56267;SDS011;42175;46.930;9.532;2023-02-28T12:51:11;19.83;;;8.60;;
56267;SDS011;42175;46.930;9.532;2023-02-28T12:53:47;18.75;;;7.72;;
56267;SDS011;42175;46.930;9.532;2023-02-28T12:58:51;17.90;;;8.18;;
56267;SDS011;42175;46.930;9.532;2023-02-28T13:09:31;16.58;;;7.65;;
56267;SDS011;42175;46.930;9.532;2023-02-28T13:11:58;16.35;;;8.40;;
56267;SDS011;42175;46.930;9.532;2023-02-28T13:19:34;18.63;;;7.40;;
56267;SDS011;42175;46.930;9.532;2023-02-28T13:22:02;15.00;;;6.80;;
56267;SDS011;42175;46.930;9.532;2023-02-28T13:24:39;13.65;;;7.28;;
56267;SDS011;42175;46.930;9.532;2023-02-28T13:29:40;11.07;;;6.07;;
56267;SDS011;42175;46.930;9.532;2023-02-28T13:34:38;15.95;;;6.68;;
56267;SDS011;42175;46.930;9.532;2023-02-28T13:39:54;12.52;;;6.70;;
56267;SDS011;42175;46.930;9.532;2023-02-28T13:47:43;13.48;;;6.15;;
56267;SDS011;42175;46.930;9.532;2023-02-28T13:55:36;11.55;;;5.50;;
56267;SDS011;42175;46.930;9.532;2023-02-28T14:08:57;10.80;;;6.68;;
56267;SDS011;42175;46.930;9.532;2023-02-28T14:13:53;9.48;;;5.72;;
56267;SDS011;42175;46.930;9.532;2023-02-28T14:16:26;8.95;;;6.13;;
56267;SDS011;42175;46.930;9.532;2023-02-28T14:19:01;11.00;;;6.38;;
56267;SDS011;42175;46.930;9.532;2023-02-28T14:21:47;8.07;;;5.07;;
56267;SDS011;42175;46.930;9.532;2023-02-28T14:27:39;8.57;;;5.93;;
56267;SDS011;42175;46.930;9.532;2023-02-28T14:35:44;7.30;;;5.25;;
56267;SDS011;42175;46.930;9.532;2023-02-28T14:38:21;8.05;;;5.53;;
56267;SDS011;42175;46.930;9.532;2023-02-28T14:40:55;10.18;;;5.50;;
56267;SDS011;42175;46.930;9.532;2023-02-28T14:43:24;8.85;;;5.93;;
56267;SDS011;42175;46.930;9.532;2023-02-28T14:45:55;8.98;;;4.75;;
56267;SDS011;42175;46.930;9.532;2023-02-28T14:48:25;7.43;;;5.20;;
56267;SDS011;42175;46.930;9.532;2023-02-28T14:51:00;6.93;;;5.03;;
56267;SDS011;42175;46.930;9.532;2023-02-28T14:53:30;8.85;;;4.85;;
56267;SDS011;42175;46.930;9.532;2023-02-28T14:56:02;8.95;;;5.03;;
56267;SDS011;42175;46.930;9.532;2023-02-28T14:58:29;6.25;;;4.78;;
56267;SDS011;42175;46.930;9.532;2023-02-28T15:00:58;7.72;;;4.80;;
56267;SDS011;42175;46.930;9.532;2023-02-28T15:06:11;7.70;;;5.35;;
56267;SDS011;42175;46.930;9.532;2023-02-28T15:08:37;7.93;;;4.75;;
56267;SDS011;42175;46.930;9.532;2023-02-28T15:11:16;7.20;;;4.85;;
56267;SDS011;42175;46.930;9.532;2023-02-28T15:13:53;6.47;;;4.65;;
56267;SDS011;42175;46.930;9.532;2023-02-28T15:16:25;7.32;;;4.43;;
56267;SDS011;42175;46.930;9.532;2023-02-28T15:19:05;6.82;;;4.65;;
56267;SDS011;42175;46.930;9.532;2023-02-28T15:21:43;8.02;;;4.35;;
56267;SDS011;42175;46.930;9.532;2023-02-28T15:26:49;9.55;;;7.63;;
56267;SDS011;42175;46.930;9.532;2023-02-28T15:29:20;11.80;;;7.32;;
56267;SDS011;42175;46.930;9.532;2023-02-28T15:31:49;10.73;;;5.43;;
56267;SDS011;42175;46.930;9.532;2023-02-28T15:34:36;10.13;;;5.32;;
56267;SDS011;42175;46.930;9.532;2023-02-28T15:39:51;11.25;;;4.80;;
56267;SDS011;42175;46.930;9.532;2023-02-28T15:42:20;6.72;;;5.00;;
56267;SDS011;42175;46.930;9.532;2023-02-28T15:44:47;9.55;;;5.40;;
56267;SDS011;42175;46.930;9.532;2023-02-28T15:47:24;8.25;;;5.28;;
56267;SDS011;42175;46.930;9.532;2023-02-28T15:49:56;6.70;;;4.30;;
56267;SDS011;42175;46.930;9.532;2023-02-28T15:52:40;12.13;;;4.85;;
56267;SDS011;42175;46.930;9.532;2023-02-28T15:55:16;7.65;;;4.63;;
56267;SDS011;42175;46.930;9.532;2023-02-28T15:57:53;7.82;;;4.53;;
56267;SDS011;42175;46.930;9.532;2023-02-28T16:00:24;6.35;;;4.43;;
56267;SDS011;42175;46.930;9.532;2023-02-28T16:02:51;5.85;;;4.60;;
56267;SDS011;42175;46.930;9.532;2023-02-28T16:07:56;8.68;;;5.32;;
56267;SDS011;42175;46.930;9.532;2023-02-28T16:10:40;8.07;;;4.15;;
56267;SDS011;42175;46.930;9.532;2023-02-28T16:13:06;10.27;;;5.03;;
56267;SDS011;42175;46.930;9.532;2023-02-28T16:15:37;6.78;;;4.53;;
56267;SDS011;42175;46.930;9.532;2023-02-28T16:18:10;8.48;;;5.30;;
56267;SDS011;42175;46.930;9.532;2023-02-28T16:20:37;8.57;;;4.50;;
56267;SDS011;42175;46.930;9.532;2023-02-28T16:23:03;5.97;;;5.07;;
56267;SDS011;42175;46.930;9.532;2023-02-28T16:25:39;6.78;;;4.70;;
56267;SDS011;42175;46.930;9.532;2023-02-28T16:28:21;6.30;;;4.65;;
56267;SDS011;42175;46.930;9.532;2023-02-28T16:30:56;4.93;;;4.30;;
56267;SDS011;42175;46.930;9.532;2023-02-28T16:33:21;5.60;;;3.85;;
56267;SDS011;42175;46.930;9.532;2023-02-28T16:35:47;8.77;;;4.63;;
56267;SDS011;42175;46.930;9.532;2023-02-28T16:38:13;8.15;;;4.43;;
56267;SDS011;42175;46.930;9.532;2023-02-28T16:40:39;7.53;;;3.90;;
56267;SDS011;42175;46.930;9.532;2023-02-28T16:43:07;5.40;;;3.80;;
56267;SDS011;42175;46.930;9.532;2023-02-28T16:45:38;5.10;;;3.58;;
56267;SDS011;42175;46.930;9.532;2023-02-28T16:48:04;4.82;;;4.15;;
56267;SDS011;42175;46.930;9.532;2023-02-28T16:50:30;7.35;;;4.22;;
56267;SDS011;42175;46.930;9.532;2023-02-28T16:52:57;7.20;;;4.82;;
56267;SDS011;42175;46.930;9.532;2023-02-28T16:55:24;6.63;;;4.70;;
56267;SDS011;42175;46.930;9.532;2023-02-28T16:57:57;5.78;;;3.95;;
56267;SDS011;42175;46.930;9.532;2023-02-28T17:00:25;4.38;;;3.63;;
56267;SDS011;42175;46.930;9.532;2023-02-28T17:02:52;4.18;;;3.78;;
56267;SDS011;42175;46.930;9.532;2023-02-28T17:05:18;4.97;;;3.85;;
56267;SDS011;42175;46.930;9.532;2023-02-28T17:07:45;6.95;;;4.40;;
56267;SDS011;42175;46.930;9.532;2023-02-28T17:10:16;5.47;;;4.35;;
56267;SDS011;42175;46.930;9.532;2023-02-28T17:12:44;5.05;;;4.28;;
56267;SDS011;42175;46.930;9.532;2023-02-28T17:15:11;6.30;;;4.30;;
56267;SDS011;42175;46.930;9.532;2023-02-28T17:17:39;7.65;;;4.72;;
56267;SDS011;42175;46.930;9.532;2023-02-28T17:20:06;9.32;;;4.68;;
56267;SDS011;42175;46.930;9.532;2023-02-28T17:22:32;6.15;;;4.45;;
56267;SDS011;42175;46.930;9.532;2023-02-28T17:24:58;5.65;;;4.45;;
56267;SDS011;42175;46.930;9.532;2023-02-28T17:27:24;5.95;;;4.30;;
56267;SDS011;42175;46.930;9.532;2023-02-28T17:29:50;5.07;;;4.10;;
56267;SDS011;42175;46.930;9.532;2023-02-28T17:32:16;6.60;;;4.50;;
56267;SDS011;42175;46.930;9.532;2023-02-28T17:34:42;7.78;;;4.40;;
56267;SDS011;42175;46.930;9.532;2023-02-28T17:37:09;5.45;;;3.92;;
56267;SDS011;42175;46.930;9.532;2023-02-28T17:39:35;5.45;;;4.28;;
56267;SDS011;42175;46.930;9.532;2023-02-28T17:42:00;4.95;;;3.72;;
56267;SDS011;42175;46.930;9.532;2023-02-28T17:44:26;6.18;;;4.57;;
56267;SDS011;42175;46.930;9.532;2023-02-28T17:46:52;9.80;;;4.40;;
56267;SDS011;42175;46.930;9.532;2023-02-28T17:49:19;6.97;;;4.82;;
56267;SDS011;42175;46.930;9.532;2023-02-28T17:51:46;6.85;;;4.47;;
56267;SDS011;42175;46.930;9.532;2023-02-28T17:54:12;5.85;;;4.75;;
56267;SDS011;42175;46.930;9.532;2023-02-28T17:56:39;7.68;;;4.15;;
56267;SDS011;42175;46.930;9.532;2023-02-28T17:59:05;6.22;;;3.92;;